Latest Conditions
At L.F.Wade Int. Airport
Recorded at 1:55 pm
Few Clouds
Temp.: 
29°C/85°F
Humidity: 
67%
Wind: 
W 8KT
or 9mph
UV Index: 
11
Island Observations
 
Observations
Sunday, August 19, 2018

Observations are in local time and taken at least once an hour, or upon the start and end of specified events such as showers and thunderstorms.

Time Sky / Weather Wind Speed/Gusts Temp. R.H. Pressure
     knots (mph)  °C (°F)  %  mb / "Hg
 13:55 Few Clouds  W 8/0 (9/0) 29(85) 67 1021 / 30.15
 12:55 Few Clouds  W 8/0 (9/0) 29(85) 68 1021 / 30.15
 11:55 Few Clouds  W 8/0 (9/0) 29(84) 68 1021 / 30.15
 10:55 Few Clouds  WSW 6/0 (7/0) 29(83) 68 1021 / 30.14
 09:55 Few Clouds  W 7/0 (8/0) 28(82) 68 1020 / 30.13
 08:55 Few Clouds  W 8/0 (9/0) 28(82) 68 1020 / 30.13
 07:55 Few Clouds  W 7/0 (8/0) 27(81) 73 1020 / 30.12
 06:55 Few Clouds  W 5/0 (6/0) 27(80) 75 1019 / 30.10
 05:55 Partly Cloudy  WNW 6/0 (7/0) 27(80) 77 1019 / 30.09
 04:55 Partly Cloudy  W 5/0 (6/0) 27(80) 75 1019 / 30.08
 03:55 Partly Cloudy  W 5/0 (6/0) 27(80) 79 1019 / 30.09
 02:55 Partly Cloudy  WNW 7/0 (8/0) 27(80) 77 1019 / 30.09
 01:55 Partly Cloudy  W 6/0 (7/0) 27(80) 74 1019 / 30.10
 00:55 Mostly Cloudy  WNW 6/0 (7/0) 27(80) 76 1019 / 30.10
 23:55 Mostly Cloudy  WNW 5/0 (6/0) 27(81) 76 1019 / 30.10
 22:55 Mostly Cloudy  WNW 4/0 (5/0) 27(81) 77 1020 / 30.11
 21:55 Mostly Cloudy  WNW 7/0 (8/0) 27(81) 73 1020 / 30.11
 20:55 Mostly Cloudy  WNW 7/0 (8/0) 28(82) 72 1019 / 30.10
 19:55 Mostly Cloudy Showers WNW 8/0 (9/0) 28(82) 79 1019 / 30.10
 18:55 Mostly Cloudy  WNW 6/0 (7/0) 28(83) 78 1019 / 30.09
 17:55 Mostly Cloudy  WNW 7/0 (8/0) 28(83) 76 1019 / 30.09
 16:55 Mostly Cloudy  WNW 9/0 (10/0) 29(83) 74 1019 / 30.10
 15:55 Mostly Cloudy  NW 10/0 (12/0) 29(85) 74 1020 / 30.11
 14:55 Mostly Cloudy  NW 8/0 (9/0) 30(85) 71 1020 / 30.12
 13:55 Mostly Cloudy  NW 9/0 (10/0) 29(84) 74 1021 / 30.15
 12:55 Few Clouds Showers NW 10/0 (12/0) 30(85) 70 1021 / 30.15
 12:20 Mostly Cloudy Showers WNW 10/0 (12/0) 29(85) 71 1021 / 30.16
 12:12 Partly Cloudy Showers WNW 10/0 (12/0) 29(84) 72 1021 / 30.16
 11:55 Few Clouds Showers WNW 10/0 (12/0) 29(84) 72 1021 / 30.16
 10:55 Few Clouds  NW 10/0 (12/0) 29(84) 73 1021 / 30.16
 09:55 Few Clouds  WNW 10/0 (12/0) 29(84) 74 1021 / 30.16
 08:55 Partly Cloudy  WNW 8/0 (9/0) 28(82) 78 1021 / 30.16
 07:55 Partly Cloudy Showers NW 5/0 (6/0) 27(81) 79 1022 / 30.17
 06:55 Mostly Cloudy Showers WNW 4/0 (5/0) 27(81) 81 1021 / 30.16
 05:55 Mostly Cloudy Showers WNW 7/0 (8/0) 27(81) 83 1021 / 30.16
 05:05 Mostly Cloudy Showers WNW 8/0 (9/0) 26(80) 84 1021 / 30.15
 04:55 Mostly Cloudy Showers W 8/0 (9/0) 27(80) 82 1021 / 30.15
 03:55 Partly Cloudy  WNW 6/0 (7/0) 27(81) 81 1021 / 30.15
 02:55 Partly Cloudy Showers WNW 6/0 (7/0) 27(81) 80 1021 / 30.15
 01:55 Partly Cloudy  W 5/0 (6/0) 27(81) 80 1021 / 30.16
 00:55 Partly Cloudy  WNW 7/0 (8/0) 28(82) 79 1022 / 30.17
 23:55 Partly Cloudy Showers WNW 5/0 (6/0) 28(82) 78 1022 / 30.19
 22:55 Partly Cloudy Showers WNW 5/0 (6/0) 28(82) 80 1022 / 30.19
 21:55 Partly Cloudy Showers W 7/0 (8/0) 28(82) 78 1023 / 30.20
 20:55 Partly Cloudy Showers WNW 8/0 (9/0) 28(82) 76 1022 / 30.19
 19:55 Partly Cloudy  WNW 8/0 (9/0) 28(82) 78 1022 / 30.19
 18:55 Partly Cloudy  WNW 10/0 (12/0) 29(84) 75 1022 / 30.18
 17:55 Few Clouds  WNW 10/0 (12/0) 29(84) 71 1022 / 30.19
 16:55 Partly Cloudy  WNW 10/0 (12/0) 30(85) 72 1022 / 30.18
 15:55 Few Clouds  NW 9/0 (10/0) 29(85) 72 1022 / 30.19
 14:55 Few Clouds  WNW 9/0 (10/0) 30(86) 67 1023 / 30.20
 13:55 Few Clouds  NW 10/0 (12/0) 30(85) 69 1023 / 30.22
 12:55 Few Clouds  WNW 9/0 (10/0) 30(85) 71 1023 / 30.22
 11:55 Few Clouds  WNW 8/0 (9/0) 29(85) 72 1024 / 30.23
 10:55 Few Clouds  NW 8/0 (9/0) 29(85) 72 1024 / 30.24
 09:55 Partly Cloudy Showers WNW 8/0 (9/0) 28(82) 79 1024 / 30.23
 09:44 Partly Cloudy Showers W 8/0 (9/0) 28(82) 78 1024 / 30.23
 09:38 Mostly Cloudy Showers WNW 7/0 (8/0) 28(82) 79 1024 / 30.23
 09:33 Mostly Cloudy Showers W 7/0 (8/0) 28(83) 77 1024 / 30.23
 08:55 Few Clouds Showers WNW 6/0 (7/0) 28(83) 75 1024 / 30.24
 07:55 Few Clouds  WNW 5/0 (6/0) 27(81) 79 1024 / 30.23
 06:55 Partly Cloudy  WNW 5/0 (6/0) 27(81) 80 1023 / 30.22
 05:55 Partly Cloudy  WNW 6/0 (7/0) 27(81) 80 1023 / 30.21
 04:55 Few Clouds  NW 6/0 (7/0) 27(81) 80 1023 / 30.20
 03:55 Few Clouds  WNW 6/0 (7/0) 27(81) 79 1023 / 30.20
 02:55 Few Clouds  WNW 5/0 (6/0) 27(81) 79 1023 / 30.21
 01:55 Few Clouds  WNW 6/0 (7/0) 27(81) 74 1023 / 30.22
 00:55 Few Clouds  WNW 6/0 (7/0) 27(81) 78 1024 / 30.23
 23:55 Few Clouds  WNW 6/0 (7/0) 27(81) 75 1024 / 30.24
 22:55 Few Clouds  NW 7/0 (8/0) 28(82) 75 1024 / 30.25
 21:55 Few Clouds  NW 7/0 (8/0) 28(82) 75 1024 / 30.24
 20:55 Partly Cloudy  NW 8/0 (9/0) 28(82) 77 1024 / 30.23
 19:55 Few Clouds  WNW 6/0 (7/0) 28(82) 76 1023 / 30.22
 18:55 Partly Cloudy  NW 8/0 (9/0) 29(84) 74 1023 / 30.20
 17:55 Partly Cloudy  NW 7/0 (8/0) 29(85) 74 1023 / 30.20
 16:55 Partly Cloudy  NW 9/0 (10/0) 29(85) 72 1023 / 30.20
 15:55 Few Clouds  NW 7/0 (8/0) 29(85) 69 1023 / 30.20
 14:55 Partly Cloudy  NW 8/0 (9/0) 30(85) 71 1023 / 30.21
 13:55 Partly Cloudy  NNW 9/0 (10/0) 30(87) 71 1023 / 30.22
 12:55 Partly Cloudy  NW 8/0 (9/0) 30(85) 72 1023 / 30.22
 11:55 Partly Cloudy  NNW 9/0 (10/0) 29(85) 73 1024 / 30.23
 10:55 Few Clouds  NW 8/0 (9/0) 29(85) 72 1023 / 30.22
 09:55 Partly Cloudy  NW 8/0 (9/0) 29(84) 76 1023 / 30.22
 08:55 Partly Cloudy Showers NW 7/0 (8/0) 28(83) 76 1023 / 30.21
 07:55 Mostly Cloudy Showers NW 7/0 (8/0) 28(82) 80 1023 / 30.21
 06:55 Partly Cloudy Showers NW 7/0 (8/0) 27(81) 81 1022 / 30.19
 05:55 Partly Cloudy  NW 7/0 (8/0) 27(81) 81 1022 / 30.17
 04:55 Few Clouds  NW 5/0 (6/0) 27(81) 83 1021 / 30.16
 03:55 Few Clouds  NNW 6/0 (7/0) 27(81) 79 1021 / 30.16
 02:55 Few Clouds  NW 6/0 (7/0) 27(81) 83 1022 / 30.17
 01:55 Partly Cloudy  NNW 7/0 (8/0) 28(82) 81 1022 / 30.17
 00:55 Partly Cloudy  NNW 4/0 (5/0) 28(82) 81 1022 / 30.19
 23:55 Few Clouds  NNW 5/0 (6/0) 28(82) 79 1022 / 30.19
 22:55 Partly Cloudy Showers NNW 7/0 (8/0) 28(82) 79 1022 / 30.19
 21:55 Partly Cloudy Showers NNW 6/0 (7/0) 28(82) 79 1022 / 30.19
 20:55 Partly Cloudy  NW 7/0 (8/0) 28(82) 80 1022 / 30.17
 19:55 Partly Cloudy  NW 6/0 (7/0) 28(83) 78 1021 / 30.16
 18:55 Partly Cloudy  NW 8/0 (9/0) 28(83) 77 1021 / 30.15
 17:55 Partly Cloudy  NNW 8/0 (9/0) 29(84) 73 1021 / 30.15
 16:55 Partly Cloudy  NW 10/0 (12/0) 30(85) 73 1021 / 30.15
Island AWOS